createdAt,value
2022-08-19T00:00:51.234Z,16.80
2022-08-19T00:03:17.864Z,17.15
2022-08-19T00:05:44.484Z,16.52
2022-08-19T00:08:11.106Z,17.08
2022-08-19T00:10:37.700Z,16.50
2022-08-19T00:13:05.130Z,16.30
2022-08-19T00:15:31.926Z,16.88
2022-08-19T00:17:58.736Z,16.67
2022-08-19T00:20:25.468Z,16.48
2022-08-19T00:22:52.813Z,17.15
2022-08-19T00:25:30.322Z,16.67
2022-08-19T00:27:57.538Z,17.10
2022-08-19T00:30:24.734Z,16.25
2022-08-19T00:32:51.580Z,16.92
2022-08-19T00:35:18.337Z,17.25
2022-08-19T00:37:45.682Z,15.98
2022-08-19T00:40:13.322Z,16.48
2022-08-19T00:42:40.179Z,16.98
2022-08-19T00:45:15.112Z,17.02
2022-08-19T00:47:41.796Z,16.30
2022-08-19T00:50:09.291Z,17.08
2022-08-19T00:52:39.676Z,16.15
2022-08-19T00:55:08.945Z,16.58
2022-08-19T00:57:37.789Z,16.20
2022-08-19T01:00:07.673Z,16.15
2022-08-19T01:02:34.368Z,16.15
2022-08-19T01:05:02.525Z,16.25
2022-08-19T01:07:29.185Z,15.63
2022-08-19T01:10:02.708Z,15.93
2022-08-19T01:12:29.329Z,15.20
2022-08-19T01:14:56.016Z,14.90
2022-08-19T01:17:22.676Z,14.43
2022-08-19T01:19:49.294Z,15.13
2022-08-19T01:22:30.199Z,15.32
2022-08-19T01:24:59.621Z,14.32
2022-08-19T01:27:26.335Z,14.45
2022-08-19T01:29:53.012Z,15.23
2022-08-19T01:32:21.158Z,15.07
2022-08-19T01:35:03.267Z,14.85
2022-08-19T01:37:31.325Z,14.95
2022-08-19T01:39:58.321Z,14.40
2022-08-19T01:42:29.005Z,14.68
2022-08-19T01:44:57.422Z,14.07
2022-08-19T01:47:24.040Z,14.00
2022-08-19T01:49:50.677Z,13.68
2022-08-19T01:52:17.291Z,13.15
2022-08-19T01:54:43.913Z,13.55
2022-08-19T01:57:12.539Z,13.45
2022-08-19T01:59:39.167Z,13.27
2022-08-19T02:02:08.012Z,12.55
2022-08-19T02:04:35.116Z,12.27
2022-08-19T02:07:02.391Z,12.73
2022-08-19T02:09:29.021Z,12.98
2022-08-19T02:11:55.621Z,12.30
2022-08-19T02:14:22.242Z,11.90
2022-08-19T02:16:48.891Z,11.88
2022-08-19T02:19:15.500Z,11.90
2022-08-19T02:21:42.097Z,11.82
2022-08-19T02:24:08.721Z,12.38
2022-08-19T02:26:35.321Z,11.85
2022-08-19T02:29:02.017Z,11.40
2022-08-19T02:31:28.936Z,11.82
2022-08-19T02:33:56.922Z,12.45
2022-08-19T02:36:24.294Z,12.48
2022-08-19T02:38:54.912Z,12.07
2022-08-19T02:44:26.584Z,12.88
2022-08-19T02:46:41.197Z,11.93
2022-08-19T02:49:08.419Z,12.27
2022-08-19T02:51:40.230Z,12.38
2022-08-19T02:54:07.369Z,12.30
2022-08-19T02:56:35.954Z,12.57
2022-08-19T02:59:02.761Z,11.95
2022-08-19T03:01:31.833Z,12.45
2022-08-19T03:04:00.071Z,12.48
2022-08-19T03:06:26.782Z,11.68
2022-08-19T03:08:53.476Z,13.20
2022-08-19T03:11:22.119Z,12.07
2022-08-19T03:13:51.642Z,12.60
2022-08-19T03:16:19.161Z,12.07
2022-08-19T03:18:45.897Z,12.15
2022-08-19T03:21:20.205Z,12.85
2022-08-19T03:23:46.872Z,13.05
2022-08-19T03:26:16.717Z,12.15
2022-08-19T03:28:50.948Z,12.32
2022-08-19T03:31:41.687Z,12.88
2022-08-19T03:34:08.157Z,11.82
2022-08-19T03:36:34.866Z,12.60
2022-08-19T03:39:01.753Z,12.02
2022-08-19T03:41:44.238Z,12.80
2022-08-19T03:44:16.791Z,11.48
2022-08-19T03:46:45.275Z,10.90
2022-08-19T03:49:13.944Z,11.93
2022-08-19T03:51:41.936Z,10.90
2022-08-19T03:54:10.156Z,11.18
2022-08-19T03:56:37.733Z,10.80
2022-08-19T03:59:04.523Z,12.20
2022-08-19T04:01:35.371Z,12.07
2022-08-19T04:04:02.438Z,12.05
2022-08-19T04:06:33.004Z,12.07
2022-08-19T04:09:00.236Z,11.50
2022-08-19T04:11:42.898Z,11.93
2022-08-19T04:14:15.283Z,12.10
2022-08-19T04:16:42.084Z,12.90
2022-08-19T04:19:08.780Z,12.63
2022-08-19T04:21:35.559Z,12.50
2022-08-19T04:24:03.787Z,13.30
2022-08-19T04:26:33.277Z,12.73
2022-08-19T04:29:06.537Z,13.35
2022-08-19T04:31:37.555Z,12.60
2022-08-19T04:34:06.446Z,13.10
2022-08-19T04:36:35.680Z,13.07
2022-08-19T04:39:09.104Z,13.43
2022-08-19T04:41:54.620Z,13.00
2022-08-19T04:44:21.798Z,14.20
2022-08-19T04:46:51.177Z,13.82
2022-08-19T04:49:20.264Z,13.05
2022-08-19T04:51:48.623Z,14.65
2022-08-19T04:54:34.766Z,14.68
2022-08-19T04:57:02.695Z,13.70
2022-08-19T04:59:29.458Z,13.02
2022-08-19T05:01:56.101Z,13.40
2022-08-19T05:04:22.693Z,13.48
2022-08-19T05:06:49.591Z,14.77
2022-08-19T05:09:16.735Z,13.85
2022-08-19T05:11:43.498Z,13.25
2022-08-19T05:14:10.580Z,13.55
2022-08-19T05:16:37.206Z,12.50
2022-08-19T05:19:22.128Z,12.77
2022-08-19T05:22:07.032Z,12.73
2022-08-19T05:24:44.046Z,12.68
2022-08-19T05:27:18.075Z,14.15
2022-08-19T05:29:44.745Z,14.52
2022-08-19T05:32:11.454Z,13.85
2022-08-19T05:34:39.076Z,15.15
2022-08-19T05:37:06.114Z,14.25
2022-08-19T05:39:34.036Z,14.27
2022-08-19T05:42:07.604Z,16.85
2022-08-19T05:44:36.305Z,14.73
2022-08-19T05:47:03.845Z,13.82
2022-08-19T05:49:31.567Z,13.73
2022-08-19T05:51:58.212Z,12.75
2022-08-19T05:54:25.244Z,12.70
2022-08-19T05:56:52.705Z,13.43
2022-08-19T05:59:22.206Z,12.68
2022-08-19T06:01:55.180Z,12.07
2022-08-19T06:06:52.550Z,11.50
2022-08-19T06:09:19.576Z,11.43
2022-08-19T06:11:56.019Z,11.68
2022-08-19T06:14:27.892Z,10.98
2022-08-19T06:16:54.832Z,11.75
2022-08-19T06:19:23.084Z,12.60
2022-08-19T06:21:50.572Z,11.73
2022-08-19T06:24:19.613Z,10.98
2022-08-19T06:29:23.492Z,10.55
2022-08-19T06:31:52.251Z,11.77
2022-08-19T06:34:18.995Z,10.68
2022-08-19T06:36:47.845Z,10.45
2022-08-19T06:39:20.006Z,10.32
2022-08-19T06:41:52.451Z,10.73
2022-08-19T06:44:21.920Z,10.55
2022-08-19T06:46:53.569Z,10.20
2022-08-19T06:49:22.080Z,9.48
2022-08-19T06:51:49.302Z,9.40
2022-08-19T06:54:19.516Z,8.35
2022-08-19T06:56:46.771Z,7.13
2022-08-19T06:59:22.181Z,6.05
2022-08-19T07:01:51.585Z,4.97
2022-08-19T07:04:20.442Z,6.18
2022-08-19T07:06:55.000Z,4.82
2022-08-19T07:09:22.005Z,4.38
2022-08-19T07:11:50.128Z,4.45
2022-08-19T07:14:19.598Z,4.15
2022-08-19T07:16:47.823Z,4.10
2022-08-19T07:19:16.236Z,4.07
2022-08-19T07:21:46.688Z,3.53
2022-08-19T07:24:13.358Z,4.03
2022-08-19T07:26:42.188Z,3.53
2022-08-19T07:29:09.165Z,3.03
2022-08-19T07:31:38.718Z,3.55
2022-08-19T07:36:37.000Z,2.95
2022-08-19T07:39:06.687Z,2.53
2022-08-19T07:41:33.514Z,2.90
2022-08-19T07:44:04.370Z,2.63
2022-08-19T07:46:32.392Z,2.80
2022-08-19T07:48:59.136Z,2.72
2022-08-19T07:51:36.421Z,2.63
2022-08-19T07:54:03.837Z,2.50
2022-08-19T07:56:30.458Z,2.63
2022-08-19T08:01:28.974Z,2.50
2022-08-19T08:04:15.475Z,2.60
2022-08-19T08:07:00.465Z,2.15
2022-08-19T08:09:33.239Z,2.75
2022-08-19T08:19:28.509Z,2.40
2022-08-19T08:21:56.404Z,2.40
2022-08-19T08:24:23.049Z,2.40
2022-08-19T08:26:57.100Z,2.65
2022-08-19T08:29:24.628Z,2.60
2022-08-19T08:31:59.721Z,2.80
2022-08-19T08:34:26.844Z,2.53
2022-08-19T08:36:53.483Z,2.70
2022-08-19T08:39:20.857Z,2.63
2022-08-19T08:42:09.930Z,2.50
2022-08-19T08:45:04.220Z,2.00
2022-08-19T08:47:33.569Z,2.40
2022-08-19T08:50:01.316Z,2.03
2022-08-19T08:52:49.387Z,2.05
2022-08-19T08:55:17.711Z,1.90
2022-08-19T08:57:55.591Z,2.35
2022-08-19T09:00:30.551Z,2.10
2022-08-19T09:02:58.327Z,1.90
2022-08-19T09:05:39.493Z,1.70
2022-08-19T09:08:29.719Z,1.65
2022-08-19T09:10:58.352Z,1.50
2022-08-19T09:13:42.286Z,1.55
2022-08-19T09:16:21.861Z,1.70
2022-08-19T09:19:06.544Z,1.58
2022-08-19T09:21:34.255Z,2.25
2022-08-19T09:24:03.654Z,1.77
2022-08-19T09:26:47.594Z,1.60
2022-08-19T09:29:18.174Z,1.42
2022-08-19T09:31:45.218Z,1.60
2022-08-19T09:34:20.615Z,1.75
2022-08-19T09:36:50.375Z,1.85
2022-08-19T09:39:18.433Z,1.10
2022-08-19T09:41:47.576Z,1.55
2022-08-19T09:44:16.569Z,1.30
2022-08-19T09:46:47.793Z,1.42
2022-08-19T09:49:15.348Z,1.42
2022-08-19T09:51:42.424Z,1.70
2022-08-19T09:54:11.345Z,1.50
2022-08-19T09:56:38.565Z,1.50
2022-08-19T09:59:05.625Z,1.40
2022-08-19T10:01:33.075Z,1.67
2022-08-19T10:04:00.502Z,1.60
2022-08-19T10:06:39.939Z,1.50
2022-08-19T10:09:11.813Z,1.50
2022-08-19T10:11:46.870Z,1.52
2022-08-19T10:14:23.182Z,1.35
2022-08-19T10:16:50.316Z,1.50
2022-08-19T10:19:25.612Z,1.48
2022-08-19T10:21:53.200Z,1.20
2022-08-19T10:24:21.494Z,1.38
2022-08-19T10:26:49.446Z,1.43
2022-08-19T10:29:33.083Z,1.55
2022-08-19T10:32:04.299Z,1.65
2022-08-19T10:34:31.413Z,1.65
2022-08-19T10:37:01.061Z,1.52
2022-08-19T10:39:32.894Z,1.80
2022-08-19T10:42:11.545Z,1.55
2022-08-19T10:44:38.721Z,1.65
2022-08-19T10:47:24.329Z,1.63
2022-08-19T10:50:12.117Z,1.70
2022-08-19T10:52:39.911Z,1.58
2022-08-19T10:55:35.805Z,1.50
2022-08-19T10:58:03.144Z,1.60
2022-08-19T11:00:32.346Z,1.45
2022-08-19T11:02:59.386Z,1.40
2022-08-19T11:05:26.415Z,1.60
2022-08-19T11:07:53.652Z,1.58
2022-08-19T11:10:22.477Z,1.90
2022-08-19T11:12:51.588Z,1.77
2022-08-19T11:15:18.796Z,2.07
2022-08-19T11:17:45.844Z,1.80
2022-08-19T11:20:13.281Z,2.28
2022-08-19T11:22:41.821Z,2.30
2022-08-19T11:25:09.489Z,2.63
2022-08-19T11:27:40.294Z,2.20
2022-08-19T11:30:08.569Z,2.10
2022-08-19T11:32:40.315Z,2.10
2022-08-19T11:35:07.753Z,2.20
2022-08-19T11:37:38.134Z,2.08
2022-08-19T11:40:05.986Z,2.17
2022-08-19T11:42:51.950Z,2.15
2022-08-19T11:45:18.871Z,2.47
2022-08-19T11:47:45.525Z,2.50
2022-08-19T11:50:12.613Z,2.50
2022-08-19T11:52:39.694Z,2.30
2022-08-19T11:55:07.072Z,2.60
2022-08-19T11:57:34.101Z,2.63
2022-08-19T12:00:00.723Z,2.58
2022-08-19T12:02:27.553Z,3.05
2022-08-19T12:04:54.717Z,2.90
2022-08-19T12:07:21.320Z,2.80
2022-08-19T12:09:48.601Z,2.47
2022-08-19T12:12:15.481Z,2.78
2022-08-19T12:14:42.365Z,2.38
2022-08-19T12:17:09.997Z,2.67
2022-08-19T12:19:38.017Z,2.70
2022-08-19T12:22:06.361Z,2.60
2022-08-19T12:24:33.305Z,2.70
2022-08-19T12:27:03.197Z,2.60
2022-08-19T12:29:30.323Z,2.95
2022-08-19T12:32:04.280Z,2.97
2022-08-19T12:34:32.181Z,3.05
2022-08-19T12:36:59.730Z,2.90
2022-08-19T12:39:26.710Z,3.00
2022-08-19T12:41:54.681Z,3.20
2022-08-19T12:44:29.194Z,2.80
2022-08-19T12:46:59.036Z,2.75
2022-08-19T12:49:50.245Z,2.85
2022-08-19T12:52:16.220Z,2.70
2022-08-19T12:54:44.086Z,2.75
2022-08-19T12:57:11.174Z,3.00
2022-08-19T12:59:38.240Z,2.97
2022-08-19T13:02:06.949Z,2.83
2022-08-19T13:04:36.058Z,2.70
2022-08-19T13:07:03.154Z,2.97
2022-08-19T13:09:29.791Z,3.28
2022-08-19T13:11:57.693Z,3.20
2022-08-19T13:14:24.294Z,3.45
2022-08-19T13:16:53.631Z,3.20
2022-08-19T13:23:01.270Z,3.55
2022-08-19T13:25:27.944Z,4.18
2022-08-19T13:27:56.028Z,3.83
2022-08-19T13:30:41.588Z,3.30
2022-08-19T13:33:17.379Z,3.15
2022-08-19T13:35:49.878Z,3.22
2022-08-19T13:38:21.360Z,3.15
2022-08-19T13:40:48.684Z,3.72
2022-08-19T13:43:22.398Z,3.50
2022-08-19T13:45:51.401Z,3.47
2022-08-19T13:48:19.189Z,3.50
2022-08-19T13:50:47.600Z,3.17
2022-08-19T13:53:14.286Z,3.30
2022-08-19T13:55:41.899Z,4.03
2022-08-19T13:58:08.706Z,3.33
2022-08-19T14:00:37.375Z,3.70
2022-08-19T14:03:09.016Z,3.42
2022-08-19T14:05:36.440Z,3.92
2022-08-19T14:08:03.760Z,3.80
2022-08-19T14:10:32.397Z,3.85
2022-08-19T14:13:02.046Z,3.50
2022-08-19T14:15:29.321Z,4.45
2022-08-19T14:17:56.710Z,4.30
2022-08-19T14:20:26.055Z,4.15
2022-08-19T14:22:53.682Z,3.63
2022-08-19T14:25:21.889Z,3.70
2022-08-19T14:27:49.136Z,4.05
2022-08-19T14:30:17.653Z,3.95
2022-08-19T14:32:44.670Z,3.95
2022-08-19T14:35:13.383Z,3.72
2022-08-19T14:37:45.451Z,3.90
2022-08-19T14:40:13.245Z,4.05
2022-08-19T14:42:40.395Z,4.65
2022-08-19T14:45:07.783Z,4.10
2022-08-19T14:47:34.812Z,4.00
2022-08-19T14:50:03.348Z,4.40
2022-08-19T14:52:34.586Z,4.30
2022-08-19T14:55:01.741Z,4.40
2022-08-19T14:57:29.324Z,4.40
2022-08-19T14:59:57.948Z,4.30
2022-08-19T15:02:35.073Z,3.70
2022-08-19T15:05:03.044Z,5.10
2022-08-19T15:07:30.372Z,4.13
2022-08-19T15:09:57.685Z,4.07
2022-08-19T15:12:24.976Z,3.88
2022-08-19T15:14:55.806Z,3.80
2022-08-19T15:17:43.475Z,3.75
2022-08-19T15:20:10.821Z,3.42
2022-08-19T15:22:37.850Z,3.75
2022-08-19T15:25:05.464Z,3.90
2022-08-19T15:27:32.886Z,3.95
2022-08-19T15:30:01.147Z,3.72
2022-08-19T15:32:31.485Z,4.05
2022-08-19T15:37:25.176Z,3.60
2022-08-19T15:39:51.876Z,4.22
2022-08-19T15:42:29.666Z,4.18
2022-08-19T15:45:00.237Z,4.50
2022-08-19T15:47:29.363Z,4.20
2022-08-19T15:50:07.129Z,3.05
2022-08-19T15:52:41.923Z,3.40
2022-08-19T15:55:32.764Z,3.53
2022-08-19T15:58:29.273Z,3.40
2022-08-19T16:01:17.811Z,3.50
2022-08-19T16:04:11.389Z,3.40
2022-08-19T16:06:49.881Z,3.10
2022-08-19T16:09:16.896Z,3.33
2022-08-19T16:11:46.325Z,3.00
2022-08-19T16:14:17.149Z,3.00
2022-08-19T16:16:46.548Z,2.50
2022-08-19T16:19:15.589Z,3.05
2022-08-19T16:21:44.246Z,3.20
2022-08-19T16:24:12.910Z,2.80
2022-08-19T16:26:40.187Z,2.90
2022-08-19T16:29:08.969Z,2.67
2022-08-19T16:31:41.312Z,3.28
2022-08-19T16:34:08.061Z,4.07
2022-08-19T16:36:34.678Z,3.08
2022-08-19T16:39:01.477Z,2.80
2022-08-19T16:41:28.475Z,3.10
2022-08-19T16:43:55.401Z,3.00
2022-08-19T16:46:22.646Z,3.13
2022-08-19T16:48:49.834Z,2.90
2022-08-19T16:51:16.627Z,3.08
2022-08-19T16:53:43.513Z,3.13
2022-08-19T16:56:10.790Z,3.30
2022-08-19T16:58:37.634Z,3.40
2022-08-19T17:01:06.853Z,3.20
2022-08-19T17:03:36.506Z,2.97
2022-08-19T17:06:04.587Z,3.38
2022-08-19T17:08:45.708Z,3.17
2022-08-19T17:11:18.498Z,3.40
2022-08-19T17:13:47.744Z,3.10
2022-08-19T17:16:15.725Z,3.33
2022-08-19T17:18:42.321Z,3.35
2022-08-19T17:21:08.956Z,3.33
2022-08-19T17:23:42.111Z,3.45
2022-08-19T17:26:16.798Z,3.28
2022-08-19T17:28:46.060Z,3.13
2022-08-19T17:31:12.695Z,3.20
2022-08-19T17:33:41.041Z,3.30
2022-08-19T17:36:08.737Z,3.83
2022-08-19T17:38:35.854Z,4.50
2022-08-19T17:41:05.871Z,3.90
2022-08-19T17:46:04.269Z,4.63
2022-08-19T17:48:40.730Z,3.85
2022-08-19T17:51:33.760Z,3.47
2022-08-19T17:54:00.524Z,4.43
2022-08-19T17:56:28.638Z,3.97
2022-08-19T17:59:00.672Z,4.82
2022-08-19T18:01:30.732Z,4.32
2022-08-19T18:04:09.932Z,3.60
2022-08-19T18:06:36.673Z,2.95
2022-08-19T18:09:05.208Z,3.17
2022-08-19T18:11:32.149Z,2.80
2022-08-19T18:13:58.780Z,3.30
2022-08-19T18:16:25.478Z,3.30
2022-08-19T18:18:53.782Z,3.50
2022-08-19T18:21:20.890Z,2.92
2022-08-19T18:23:47.502Z,3.03
2022-08-19T18:26:14.156Z,3.20
2022-08-19T18:28:49.707Z,3.35
2022-08-19T18:31:17.105Z,3.95
2022-08-19T18:33:44.695Z,3.47
2022-08-19T18:36:11.505Z,2.95
2022-08-19T18:38:56.618Z,3.10
2022-08-19T18:41:41.997Z,3.08
2022-08-19T18:44:28.479Z,3.45
2022-08-19T18:47:14.055Z,3.28
2022-08-19T18:49:40.766Z,3.05
2022-08-19T18:52:07.493Z,3.53
2022-08-19T18:54:34.342Z,2.90
2022-08-19T18:57:01.068Z,3.47
2022-08-19T18:59:30.384Z,3.30
2022-08-19T19:01:57.965Z,3.53
2022-08-19T19:04:30.389Z,3.50
2022-08-19T19:06:57.918Z,4.60
2022-08-19T19:09:24.778Z,4.97
2022-08-19T19:11:56.398Z,4.05
2022-08-19T19:14:47.794Z,3.90
2022-08-19T19:17:13.811Z,3.40
2022-08-19T19:19:42.633Z,4.43
2022-08-19T19:22:14.031Z,3.90
2022-08-19T19:24:44.018Z,4.00
2022-08-19T19:27:12.425Z,3.83
2022-08-19T19:29:39.375Z,4.07
2022-08-19T19:32:20.015Z,4.25
2022-08-19T19:34:46.818Z,4.05
2022-08-19T19:37:13.502Z,4.25
2022-08-19T19:39:46.032Z,4.63
2022-08-19T19:42:20.595Z,4.18
2022-08-19T19:44:48.786Z,4.25
2022-08-19T19:47:16.036Z,4.57
2022-08-19T19:50:03.868Z,4.97
2022-08-19T19:52:29.628Z,4.10
2022-08-19T19:54:56.805Z,4.43
2022-08-19T19:57:23.750Z,4.45
2022-08-19T19:59:51.320Z,4.82
2022-08-19T20:02:18.337Z,4.45
2022-08-19T20:04:45.255Z,4.40
2022-08-19T20:07:11.917Z,4.72
2022-08-19T20:09:58.368Z,4.25
2022-08-19T20:12:25.209Z,5.72
2022-08-19T20:14:53.049Z,6.05
2022-08-19T20:17:20.530Z,5.15
2022-08-19T20:19:48.038Z,4.95
2022-08-19T20:22:15.443Z,4.75
2022-08-19T20:24:42.674Z,5.05
2022-08-19T20:27:10.609Z,5.63
2022-08-19T20:29:41.501Z,5.05
2022-08-19T20:32:09.595Z,5.30
2022-08-19T20:34:37.160Z,4.80
2022-08-19T20:37:03.974Z,4.90
2022-08-19T20:39:30.731Z,5.00
2022-08-19T20:41:57.447Z,4.47
2022-08-19T20:44:25.336Z,4.75
2022-08-19T20:46:55.391Z,4.97
2022-08-19T20:49:27.207Z,5.20
2022-08-19T20:51:55.366Z,5.03
2022-08-19T20:54:22.047Z,5.22
2022-08-19T20:56:48.725Z,5.40
2022-08-19T20:59:15.420Z,5.00
2022-08-19T21:01:42.348Z,5.22
2022-08-19T21:04:08.995Z,5.10
2022-08-19T21:06:35.818Z,4.85
2022-08-19T21:09:02.477Z,5.00
2022-08-19T21:11:29.342Z,5.20
2022-08-19T21:13:56.907Z,5.20
2022-08-19T21:16:23.564Z,5.85
2022-08-19T21:18:50.271Z,5.30
2022-08-19T21:21:17.174Z,5.07
2022-08-19T21:23:44.165Z,5.40
2022-08-19T21:26:10.987Z,5.15
2022-08-19T21:28:37.662Z,4.95
2022-08-19T21:31:05.570Z,5.38
2022-08-19T21:33:33.105Z,5.30
2022-08-19T21:36:00.108Z,4.88
2022-08-19T21:38:27.071Z,5.38
2022-08-19T21:40:53.744Z,5.53
2022-08-19T21:43:20.460Z,5.85
2022-08-19T21:45:47.571Z,5.18
2022-08-19T21:48:15.011Z,5.78
2022-08-19T21:50:42.663Z,5.45
2022-08-19T21:53:13.989Z,5.68
2022-08-19T21:55:44.805Z,5.38
2022-08-19T21:58:12.294Z,5.88
2022-08-19T22:00:39.850Z,5.25
2022-08-19T22:03:06.555Z,6.50
2022-08-19T22:05:33.828Z,5.82
2022-08-19T22:08:02.483Z,5.45
2022-08-19T22:10:31.079Z,5.10
2022-08-19T22:12:57.739Z,5.40
2022-08-19T22:15:26.128Z,5.60
2022-08-19T22:17:53.156Z,5.63
2022-08-19T22:20:22.061Z,5.57
2022-08-19T22:22:51.404Z,5.38
2022-08-19T22:25:32.571Z,5.47
2022-08-19T22:28:00.699Z,5.82
2022-08-19T22:30:33.181Z,5.50
2022-08-19T22:33:02.116Z,5.45
2022-08-19T22:35:31.948Z,5.68
2022-08-19T22:37:59.093Z,5.90
2022-08-19T22:40:26.988Z,6.18
2022-08-19T22:43:02.031Z,6.05
2022-08-19T22:45:28.830Z,5.93
2022-08-19T22:47:55.623Z,6.18
2022-08-19T22:50:22.633Z,6.32
2022-08-19T22:52:52.246Z,5.70
2022-08-19T22:55:19.370Z,7.22
2022-08-19T22:57:46.022Z,6.15
2022-08-19T23:00:13.645Z,5.55
2022-08-19T23:02:52.177Z,5.90
2022-08-19T23:05:21.964Z,5.65
2022-08-19T23:07:52.131Z,5.80
2022-08-19T23:10:27.621Z,5.53
2022-08-19T23:12:55.350Z,5.07
2022-08-19T23:15:24.221Z,4.90
2022-08-19T23:17:54.182Z,5.45
2022-08-19T23:20:21.536Z,5.63
2022-08-19T23:22:50.476Z,5.28
2022-08-19T23:25:19.567Z,5.40
2022-08-19T23:28:04.835Z,6.03
2022-08-19T23:30:31.932Z,6.70
2022-08-19T23:33:01.850Z,5.85
2022-08-19T23:35:32.682Z,5.38
2022-08-19T23:38:00.962Z,5.40
2022-08-19T23:40:27.802Z,5.07
2022-08-19T23:42:54.689Z,5.18
2022-08-19T23:45:23.660Z,5.50
2022-08-19T23:47:50.738Z,5.00
2022-08-19T23:50:17.519Z,5.43
2022-08-19T23:52:55.202Z,5.40
2022-08-19T23:55:24.452Z,5.70
2022-08-19T23:57:51.206Z,5.43
